sensor_id;sensor_type;location;lat;lon;timestamp;pressure;altitude;pressure_sealevel;temperature;humidity
59767;BME280;46248;58.364;25.582;2023-01-25T00:02:44;102037.53;;;-0.19;100.00
59767;BME280;46248;58.364;25.582;2023-01-25T00:06:07;102035.00;;;-0.17;100.00
59767;BME280;46248;58.364;25.582;2023-01-25T00:09:29;102022.03;;;-0.22;100.00
59767;BME280;46248;58.364;25.582;2023-01-25T00:12:53;102034.13;;;-0.18;100.00
59767;BME280;46248;58.364;25.582;2023-01-25T00:16:16;102027.28;;;-0.17;100.00
59767;BME280;46248;58.364;25.582;2023-01-25T00:19:37;102023.75;;;-0.22;100.00
59767;BME280;46248;58.364;25.582;2023-01-25T00:22:59;102031.50;;;-0.21;100.00
59767;BME280;46248;58.364;25.582;2023-01-25T00:26:21;102032.38;;;-0.19;100.00
59767;BME280;46248;58.364;25.582;2023-01-25T00:29:44;102035.84;;;-0.17;100.00
59767;BME280;46248;58.364;25.582;2023-01-25T00:33:31;102034.13;;;-0.18;100.00
59767;BME280;46248;58.364;25.582;2023-01-25T00:36:56;102036.72;;;-0.18;100.00
59767;BME280;46248;58.364;25.582;2023-01-25T00:40:19;102029.84;;;-0.16;100.00
59767;BME280;46248;58.364;25.582;2023-01-25T00:43:41;102029.91;;;-0.14;100.00
59767;BME280;46248;58.364;25.582;2023-01-25T00:47:04;102023.00;;;-0.15;100.00
59767;BME280;46248;58.364;25.582;2023-01-25T00:50:26;102025.63;;;-0.12;100.00
59767;BME280;46248;58.364;25.582;2023-01-25T00:53:50;101998.84;;;-0.24;100.00
59767;BME280;46248;58.364;25.582;2023-01-25T00:57:11;102017.03;;;-0.13;100.00
59767;BME280;46248;58.364;25.582;2023-01-25T01:00:33;102016.22;;;-0.12;100.00
59767;BME280;46248;58.364;25.582;2023-01-25T01:03:55;102008.50;;;-0.12;100.00
59767;BME280;46248;58.364;25.582;2023-01-25T01:07:17;101994.78;;;-0.11;100.00
59767;BME280;46248;58.364;25.582;2023-01-25T01:10:40;101986.19;;;-0.10;100.00
59767;BME280;46248;58.364;25.582;2023-01-25T01:14:04;101982.72;;;-0.13;100.00
59767;BME280;46248;58.364;25.582;2023-01-25T01:17:26;101977.56;;;-0.15;100.00
59767;BME280;46248;58.364;25.582;2023-01-25T01:20:48;101987.84;;;-0.13;100.00
59767;BME280;46248;58.364;25.582;2023-01-25T01:24:10;101990.41;;;-0.15;100.00
59767;BME280;46248;58.364;25.582;2023-01-25T01:27:33;101974.97;;;-0.15;100.00
59767;BME280;46248;58.364;25.582;2023-01-25T01:30:59;101937.03;;;-0.27;100.00
59767;BME280;46248;58.364;25.582;2023-01-25T01:34:22;101953.50;;;-0.15;100.00
59767;BME280;46248;58.364;25.582;2023-01-25T01:37:44;101959.53;;;-0.13;100.00
59767;BME280;46248;58.364;25.582;2023-01-25T01:41:07;101947.53;;;-0.14;100.00
59767;BME280;46248;58.364;25.582;2023-01-25T01:44:45;101940.66;;;-0.12;100.00
59767;BME280;46248;58.364;25.582;2023-01-25T01:48:14;101929.50;;;-0.13;100.00
59767;BME280;46248;58.364;25.582;2023-01-25T01:51:45;101921.78;;;-0.14;100.00
59767;BME280;46248;58.364;25.582;2023-01-25T01:55:12;101914.06;;;-0.14;100.00
59767;BME280;46248;58.364;25.582;2023-01-25T01:58:37;101911.47;;;-0.14;100.00
59767;BME280;46248;58.364;25.582;2023-01-25T02:02:02;101914.06;;;-0.13;100.00
59767;BME280;46248;58.364;25.582;2023-01-25T02:05:29;101896.81;;;-0.18;100.00
59767;BME280;46248;58.364;25.582;2023-01-25T02:08:53;101896.91;;;-0.12;100.00
59767;BME280;46248;58.364;25.582;2023-01-25T02:12:16;101884.88;;;-0.15;100.00
59767;BME280;46248;58.364;25.582;2023-01-25T02:15:42;101886.59;;;-0.12;100.00
59767;BME280;46248;58.364;25.582;2023-01-25T02:19:08;101884.03;;;-0.12;100.00
59767;BME280;46248;58.364;25.582;2023-01-25T02:22:38;101870.31;;;-0.11;100.00
59767;BME280;46248;58.364;25.582;2023-01-25T02:26:05;101863.47;;;-0.09;100.00
59767;BME280;46248;58.364;25.582;2023-01-25T02:29:28;101867.78;;;-0.08;100.00
59767;BME280;46248;58.364;25.582;2023-01-25T02:32:50;101860.06;;;-0.07;100.00
59767;BME280;46248;58.364;25.582;2023-01-25T02:36:19;101857.50;;;-0.07;100.00
59767;BME280;46248;58.364;25.582;2023-01-25T02:39:41;101847.19;;;-0.07;100.00
59767;BME280;46248;58.364;25.582;2023-01-25T02:43:05;101842.94;;;-0.05;100.00
59767;BME280;46248;58.364;25.582;2023-01-25T02:46:29;101854.97;;;-0.05;100.00
59767;BME280;46248;58.364;25.582;2023-01-25T02:49:52;101860.06;;;-0.08;100.00
59767;BME280;46248;58.364;25.582;2023-01-25T02:53:13;101856.63;;;-0.09;100.00
59767;BME280;46248;58.364;25.582;2023-01-25T02:56:36;101848.91;;;-0.07;100.00
59767;BME280;46248;58.364;25.582;2023-01-25T03:00:02;101837.75;;;-0.06;100.00
59767;BME280;46248;58.364;25.582;2023-01-25T03:03:25;101839.47;;;-0.07;100.00
59767;BME280;46248;58.364;25.582;2023-01-25T03:06:47;101833.47;;;-0.07;100.00
59767;BME280;46248;58.364;25.582;2023-01-25T03:10:10;101819.66;;;-0.14;100.00
59767;BME280;46248;58.364;25.582;2023-01-25T03:13:33;101830.94;;;-0.06;100.00
59767;BME280;46248;58.364;25.582;2023-01-25T03:16:57;101813.78;;;-0.04;100.00
59767;BME280;46248;58.364;25.582;2023-01-25T03:20:19;101822.34;;;-0.03;100.00
59767;BME280;46248;58.364;25.582;2023-01-25T03:23:42;101814.63;;;-0.03;100.00
59767;BME280;46248;58.364;25.582;2023-01-25T03:27:04;101810.34;;;-0.04;100.00
59767;BME280;46248;58.364;25.582;2023-01-25T03:30:33;101812.06;;;-0.03;100.00
59767;BME280;46248;58.364;25.582;2023-01-25T03:33:56;101800.00;;;-0.07;100.00
59767;BME280;46248;58.364;25.582;2023-01-25T03:37:18;101808.66;;;-0.02;100.00
59767;BME280;46248;58.364;25.582;2023-01-25T03:40:40;101804.41;;;0.00;100.00
59767;BME280;46248;58.364;25.582;2023-01-25T03:44:03;101785.47;;;-0.02;100.00
59767;BME280;46248;58.364;25.582;2023-01-25T03:47:25;101780.38;;;0.01;100.00
59767;BME280;46248;58.364;25.582;2023-01-25T03:50:50;101770.94;;;0.02;100.00
59767;BME280;46248;58.364;25.582;2023-01-25T03:54:12;101761.50;;;0.01;100.00
59767;BME280;46248;58.364;25.582;2023-01-25T03:57:34;101758.94;;;0.04;100.00
59767;BME280;46248;58.364;25.582;2023-01-25T04:00:58;101757.16;;;-0.01;100.00
59767;BME280;46248;58.364;25.582;2023-01-25T04:04:20;101748.66;;;0.04;100.00
59767;BME280;46248;58.364;25.582;2023-01-25T04:07:44;101752.09;;;0.04;100.00
59767;BME280;46248;58.364;25.582;2023-01-25T04:11:07;101753.81;;;0.05;100.00
59767;BME280;46248;58.364;25.582;2023-01-25T04:14:30;101748.66;;;0.04;100.00
59767;BME280;46248;58.364;25.582;2023-01-25T04:18:04;101732.31;;;0.02;100.00
59767;BME280;46248;58.364;25.582;2023-01-25T04:21:26;101746.06;;;0.05;100.00
59767;BME280;46248;58.364;25.582;2023-01-25T04:24:49;101719.47;;;0.05;100.00
59767;BME280;46248;58.364;25.582;2023-01-25T04:28:12;101704.06;;;0.06;100.00
59767;BME280;46248;58.364;25.582;2023-01-25T04:31:34;101698.03;;;0.09;100.00
59767;BME280;46248;58.364;25.582;2023-01-25T04:34:56;101706.66;;;0.11;100.00
59767;BME280;46248;58.364;25.582;2023-01-25T04:38:18;101714.38;;;0.11;100.00
59767;BME280;46248;58.364;25.582;2023-01-25T04:41:41;101724.72;;;0.14;100.00
59767;BME280;46248;58.364;25.582;2023-01-25T04:45:05;101715.28;;;0.13;100.00
59767;BME280;46248;58.364;25.582;2023-01-25T04:48:28;101707.59;;;0.16;100.00
59767;BME280;46248;58.364;25.582;2023-01-25T04:51:50;101704.16;;;0.15;100.00
59767;BME280;46248;58.364;25.582;2023-01-25T04:55:12;101720.44;;;0.14;100.00
59767;BME280;46248;58.364;25.582;2023-01-25T04:58:35;101710.97;;;0.15;100.00
59767;BME280;46248;58.364;25.582;2023-01-25T05:01:57;101692.09;;;0.13;100.00
59767;BME280;46248;58.364;25.582;2023-01-25T05:05:19;101695.56;;;0.16;100.00
59767;BME280;46248;58.364;25.582;2023-01-25T05:08:41;101699.03;;;0.18;100.00
59767;BME280;46248;58.364;25.582;2023-01-25T05:12:03;101681.84;;;0.19;100.00
59767;BME280;46248;58.364;25.582;2023-01-25T05:15:32;101698.16;;;0.19;100.00
59767;BME280;46248;58.364;25.582;2023-01-25T05:18:55;101695.59;;;0.19;100.00
59767;BME280;46248;58.364;25.582;2023-01-25T05:22:17;101693.00;;;0.19;100.00
59767;BME280;46248;58.364;25.582;2023-01-25T05:25:41;101684.44;;;0.19;100.00
59767;BME280;46248;58.364;25.582;2023-01-25T05:29:21;101683.56;;;0.20;100.00
59767;BME280;46248;58.364;25.582;2023-01-25T05:32:44;101672.41;;;0.21;100.00
59767;BME280;46248;58.364;25.582;2023-01-25T05:36:07;101674.16;;;0.22;100.00
59767;BME280;46248;58.364;25.582;2023-01-25T05:39:29;101666.41;;;0.20;100.00
59767;BME280;46248;58.364;25.582;2023-01-25T05:42:54;101665.56;;;0.21;100.00
59767;BME280;46248;58.364;25.582;2023-01-25T05:46:17;101670.72;;;0.21;100.00
59767;BME280;46248;58.364;25.582;2023-01-25T05:49:40;101659.56;;;0.22;100.00
59767;BME280;46248;58.364;25.582;2023-01-25T05:53:02;101654.41;;;0.22;100.00
59767;BME280;46248;58.364;25.582;2023-01-25T05:56:24;101657.78;;;0.17;100.00
59767;BME280;46248;58.364;25.582;2023-01-25T05:59:46;101654.38;;;0.21;100.00
59767;BME280;46248;58.364;25.582;2023-01-25T06:03:08;101646.69;;;0.22;100.00
59767;BME280;46248;58.364;25.582;2023-01-25T06:06:31;101647.53;;;0.23;100.00
59767;BME280;46248;58.364;25.582;2023-01-25T06:09:53;101651.84;;;0.22;100.00
59767;BME280;46248;58.364;25.582;2023-01-25T06:13:16;101634.59;;;0.17;100.00
59767;BME280;46248;58.364;25.582;2023-01-25T06:16:38;101659.59;;;0.26;100.00
59767;BME280;46248;58.364;25.582;2023-01-25T06:20:00;101642.41;;;0.26;100.00
59767;BME280;46248;58.364;25.582;2023-01-25T06:23:23;101638.94;;;0.24;100.00
59767;BME280;46248;58.364;25.582;2023-01-25T06:26:45;101638.94;;;0.24;100.00
59767;BME280;46248;58.364;25.582;2023-01-25T06:30:09;101631.22;;;0.22;100.00
59767;BME280;46248;58.364;25.582;2023-01-25T06:33:31;101628.63;;;0.21;100.00
59767;BME280;46248;58.364;25.582;2023-01-25T06:36:53;101636.41;;;0.27;100.00
59767;BME280;46248;58.364;25.582;2023-01-25T06:40:16;101630.41;;;0.28;100.00
59767;BME280;46248;58.364;25.582;2023-01-25T06:43:38;101624.41;;;0.28;100.00
59767;BME280;46248;58.364;25.582;2023-01-25T06:47:00;101619.25;;;0.28;100.00
59767;BME280;46248;58.364;25.582;2023-01-25T06:50:22;101617.53;;;0.28;100.00
59767;BME280;46248;58.364;25.582;2023-01-25T06:53:45;101620.13;;;0.30;100.00
59767;BME280;46248;58.364;25.582;2023-01-25T06:57:08;101614.97;;;0.28;100.00
59767;BME280;46248;58.364;25.582;2023-01-25T07:00:31;101607.25;;;0.28;100.00
59767;BME280;46248;58.364;25.582;2023-01-25T07:03:54;101596.94;;;0.30;100.00
59767;BME280;46248;58.364;25.582;2023-01-25T07:07:17;101586.63;;;0.30;100.00
59767;BME280;46248;58.364;25.582;2023-01-25T07:10:39;101588.38;;;0.32;100.00
59767;BME280;46248;58.364;25.582;2023-01-25T07:14:03;101590.97;;;0.35;100.00
59767;BME280;46248;58.364;25.582;2023-01-25T07:17:25;101584.13;;;0.37;100.00
59767;BME280;46248;58.364;25.582;2023-01-25T07:20:49;101580.69;;;0.37;100.00
59767;BME280;46248;58.364;25.582;2023-01-25T07:24:13;101577.28;;;0.41;100.00
59767;BME280;46248;58.364;25.582;2023-01-25T07:27:36;101567.00;;;0.42;100.00
59767;BME280;46248;58.364;25.582;2023-01-25T07:31:04;101563.56;;;0.43;100.00
59767;BME280;46248;58.364;25.582;2023-01-25T07:34:26;101559.28;;;0.45;100.00
59767;BME280;46248;58.364;25.582;2023-01-25T07:37:49;101547.25;;;0.46;100.00
59767;BME280;46248;58.364;25.582;2023-01-25T07:41:11;101559.28;;;0.47;100.00
59767;BME280;46248;58.364;25.582;2023-01-25T07:44:32;101564.44;;;0.45;100.00
59767;BME280;46248;58.364;25.582;2023-01-25T07:47:57;101562.72;;;0.46;100.00
59767;BME280;46248;58.364;25.582;2023-01-25T07:51:20;101555.81;;;0.45;100.00
59767;BME280;46248;58.364;25.582;2023-01-25T07:54:43;101547.25;;;0.46;100.00
59767;BME280;46248;58.364;25.582;2023-01-25T07:58:09;101531.75;;;0.40;100.00
59767;BME280;46248;58.364;25.582;2023-01-25T08:01:31;101539.53;;;0.46;100.00
59767;BME280;46248;58.364;25.582;2023-01-25T08:04:57;101538.69;;;0.49;100.00
59767;BME280;46248;58.364;25.582;2023-01-25T08:08:19;101525.81;;;0.49;100.00
59767;BME280;46248;58.364;25.582;2023-01-25T08:11:41;101515.50;;;0.49;100.00
59767;BME280;46248;58.364;25.582;2023-01-25T08:15:04;101514.63;;;0.51;100.00
59767;BME280;46248;58.364;25.582;2023-01-25T08:18:26;101520.69;;;0.52;100.00
59767;BME280;46248;58.364;25.582;2023-01-25T08:21:50;101517.22;;;0.53;100.00
59767;BME280;46248;58.364;25.582;2023-01-25T08:25:12;101520.69;;;0.55;100.00
59767;BME280;46248;58.364;25.582;2023-01-25T08:28:34;101510.38;;;0.55;100.00
59767;BME280;46248;58.364;25.582;2023-01-25T08:31:56;101512.09;;;0.56;100.00
59767;BME280;46248;58.364;25.582;2023-01-25T08:35:18;101508.69;;;0.60;100.00
59767;BME280;46248;58.364;25.582;2023-01-25T08:38:41;101505.25;;;0.62;100.00
59767;BME280;46248;58.364;25.582;2023-01-25T08:42:03;101506.97;;;0.63;100.00
59767;BME280;46248;58.364;25.582;2023-01-25T08:45:26;101501.81;;;0.63;100.00
59767;BME280;46248;58.364;25.582;2023-01-25T08:48:47;101507.84;;;0.62;100.00
59767;BME280;46248;58.364;25.582;2023-01-25T08:52:09;101488.94;;;0.62;100.00
59767;BME280;46248;58.364;25.582;2023-01-25T08:55:36;101486.34;;;0.60;100.00
59767;BME280;46248;58.364;25.582;2023-01-25T08:58:58;101484.63;;;0.59;100.00
59767;BME280;46248;58.364;25.582;2023-01-25T09:02:20;101493.22;;;0.60;100.00
59767;BME280;46248;58.364;25.582;2023-01-25T09:05:42;101483.75;;;0.60;100.00
59767;BME280;46248;58.364;25.582;2023-01-25T09:09:03;101488.94;;;0.62;100.00
59767;BME280;46248;58.364;25.582;2023-01-25T09:12:28;101485.50;;;0.63;100.00
59767;BME280;46248;58.364;25.582;2023-01-25T09:15:51;101483.78;;;0.63;100.00
59767;BME280;46248;58.364;25.582;2023-01-25T09:19:13;101476.06;;;0.66;100.00
59767;BME280;46248;58.364;25.582;2023-01-25T09:22:35;101473.50;;;0.69;100.00
59767;BME280;46248;58.364;25.582;2023-01-25T09:25:57;101467.50;;;0.71;100.00
59767;BME280;46248;58.364;25.582;2023-01-25T09:29:20;101464.06;;;0.70;100.00
59767;BME280;46248;58.364;25.582;2023-01-25T09:32:42;101456.31;;;0.72;100.00
59767;BME280;46248;58.364;25.582;2023-01-25T09:36:05;101453.78;;;0.78;100.00
59767;BME280;46248;58.364;25.582;2023-01-25T09:39:27;101448.63;;;0.79;100.00
59767;BME280;46248;58.364;25.582;2023-01-25T09:42:57;101436.59;;;0.81;100.00
59767;BME280;46248;58.364;25.582;2023-01-25T09:46:28;101422.00;;;0.79;100.00
59767;BME280;46248;58.364;25.582;2023-01-25T09:50:03;101423.72;;;0.86;100.00
59767;BME280;46248;58.364;25.582;2023-01-25T09:53:33;101411.72;;;0.88;100.00
59767;BME280;46248;58.364;25.582;2023-01-25T09:56:57;101409.13;;;0.88;100.00
59767;BME280;46248;58.364;25.582;2023-01-25T10:00:23;101403.97;;;0.88;100.00
59767;BME280;46248;58.364;25.582;2023-01-25T10:03:53;101393.66;;;0.88;100.00
59767;BME280;46248;58.364;25.582;2023-01-25T10:07:19;101379.88;;;0.84;100.00
59767;BME280;46248;58.364;25.582;2023-01-25T10:10:44;101392.78;;;0.94;100.00
59767;BME280;46248;58.364;25.582;2023-01-25T10:14:13;101382.50;;;0.95;100.00
59767;BME280;46248;58.364;25.582;2023-01-25T10:17:38;101380.78;;;0.94;100.00
59767;BME280;46248;58.364;25.582;2023-01-25T10:21:05;101373.03;;;0.96;100.00
59767;BME280;46248;58.364;25.582;2023-01-25T10:28:33;101375.63;;;0.99;100.00
59767;BME280;46248;58.364;25.582;2023-01-25T10:32:07;101353.28;;;0.95;100.00
59767;BME280;46248;58.364;25.582;2023-01-25T10:35:35;101358.44;;;1.02;100.00
59767;BME280;46248;58.364;25.582;2023-01-25T10:39:05;101353.28;;;1.04;100.00
59767;BME280;46248;58.364;25.582;2023-01-25T10:42:32;101336.97;;;1.03;100.00
59767;BME280;46248;58.364;25.582;2023-01-25T10:45:57;101326.66;;;1.03;100.00
59767;BME280;46248;58.364;25.582;2023-01-25T10:49:23;101332.66;;;1.08;100.00
59767;BME280;46248;58.364;25.582;2023-01-25T10:52:56;101308.59;;;1.08;100.00
59767;BME280;46248;58.364;25.582;2023-01-25T10:56:24;101318.91;;;1.11;100.00
59767;BME280;46248;58.364;25.582;2023-01-25T10:59:49;101325.75;;;1.09;100.00
59767;BME280;46248;58.364;25.582;2023-01-25T11:03:19;101316.31;;;1.08;100.00
59767;BME280;46248;58.364;25.582;2023-01-25T11:06:46;101310.28;;;1.09;100.00
59767;BME280;46248;58.364;25.582;2023-01-25T11:10:27;101317.19;;;1.07;100.00
59767;BME280;46248;58.364;25.582;2023-01-25T11:13:51;101307.72;;;1.06;100.00
59767;BME280;46248;58.364;25.582;2023-01-25T11:17:24;101293.97;;;1.11;100.00
59767;BME280;46248;58.364;25.582;2023-01-25T11:20:47;101287.97;;;1.19;100.00
59767;BME280;46248;58.364;25.582;2023-01-25T11:24:26;101279.38;;;1.24;100.00
59767;BME280;46248;58.364;25.582;2023-01-25T11:27:48;101267.31;;;1.25;100.00
59767;BME280;46248;58.364;25.582;2023-01-25T11:31:13;101272.47;;;1.26;100.00
59767;BME280;46248;58.364;25.582;2023-01-25T11:34:36;101269.03;;;1.27;100.00
59767;BME280;46248;58.364;25.582;2023-01-25T11:38:06;101256.13;;;1.23;100.00
59767;BME280;46248;58.364;25.582;2023-01-25T11:41:37;101268.16;;;1.31;100.00
59767;BME280;46248;58.364;25.582;2023-01-25T11:49:15;101238.09;;;1.27;100.00
59767;BME280;46248;58.364;25.582;2023-01-25T11:52:56;101233.75;;;1.26;100.00
59767;BME280;46248;58.364;25.582;2023-01-25T11:56:30;101233.78;;;1.31;100.00
59767;BME280;46248;58.364;25.582;2023-01-25T12:00:19;101216.56;;;1.27;100.00
59767;BME280;46248;58.364;25.582;2023-01-25T12:07:51;101221.72;;;1.27;100.00
59767;BME280;46248;58.364;25.582;2023-01-25T12:11:35;101226.03;;;1.28;100.00
59767;BME280;46248;58.364;25.582;2023-01-25T12:15:16;101231.19;;;1.26;100.00
59767;BME280;46248;58.364;25.582;2023-01-25T12:19:08;101232.91;;;1.20;100.00
59767;BME280;46248;58.364;25.582;2023-01-25T12:22:43;101226.06;;;1.19;100.00
59767;BME280;46248;58.364;25.582;2023-01-25T12:26:17;101227.78;;;1.21;100.00
59767;BME280;46248;58.364;25.582;2023-01-25T12:29:42;101223.47;;;1.22;100.00
59767;BME280;46248;58.364;25.582;2023-01-25T12:33:10;101220.88;;;1.22;100.00
59767;BME280;46248;58.364;25.582;2023-01-25T12:36:37;101217.44;;;1.24;100.00
59767;BME280;46248;58.364;25.582;2023-01-25T12:40:03;101218.28;;;1.23;100.00
59767;BME280;46248;58.364;25.582;2023-01-25T12:43:32;101215.72;;;1.20;100.00
59767;BME280;46248;58.364;25.582;2023-01-25T12:47:03;101214.88;;;1.24;100.00
59767;BME280;46248;58.364;25.582;2023-01-25T12:50:31;101190.81;;;1.13;100.00
59767;BME280;46248;58.364;25.582;2023-01-25T12:53:56;101214.88;;;1.24;100.00
59767;BME280;46248;58.364;25.582;2023-01-25T12:57:21;101207.97;;;1.26;100.00
59767;BME280;46248;58.364;25.582;2023-01-25T13:00:53;101203.66;;;1.27;100.00
59767;BME280;46248;58.364;25.582;2023-01-25T13:04:29;101195.06;;;1.29;100.00
59767;BME280;46248;58.364;25.582;2023-01-25T13:08:04;101190.75;;;1.31;100.00
59767;BME280;46248;58.364;25.582;2023-01-25T13:11:33;101182.16;;;1.34;100.00
59767;BME280;46248;58.364;25.582;2023-01-25T13:14:55;101190.75;;;1.33;100.00
59767;BME280;46248;58.364;25.582;2023-01-25T13:18:38;101185.59;;;1.33;100.00
59767;BME280;46248;58.364;25.582;2023-01-25T13:22:00;101177.84;;;1.37;100.00
59767;BME280;46248;58.364;25.582;2023-01-25T13:25:23;101167.53;;;1.30;100.00
59767;BME280;46248;58.364;25.582;2023-01-25T13:28:46;101166.66;;;1.38;100.00
59767;BME280;46248;58.364;25.582;2023-01-25T13:32:11;101172.69;;;1.37;100.00
59767;BME280;46248;58.364;25.582;2023-01-25T13:35:42;101168.41;;;1.36;100.00
59767;BME280;46248;58.364;25.582;2023-01-25T13:39:39;101171.81;;;1.42;100.00
59767;BME280;46248;58.364;25.582;2023-01-25T13:43:04;101175.25;;;1.41;100.00
59767;BME280;46248;58.364;25.582;2023-01-25T13:46:26;101164.09;;;1.40;100.00
59767;BME280;46248;58.364;25.582;2023-01-25T13:49:53;101153.75;;;1.40;100.00
59767;BME280;46248;58.364;25.582;2023-01-25T13:53:20;101161.50;;;1.37;100.00
59767;BME280;46248;58.364;25.582;2023-01-25T13:56:43;101149.47;;;1.37;100.00
59767;BME280;46248;58.364;25.582;2023-01-25T14:00:12;101142.56;;;1.38;100.00
59767;BME280;46248;58.364;25.582;2023-01-25T14:03:40;101143.44;;;1.38;100.00
59767;BME280;46248;58.364;25.582;2023-01-25T14:07:03;101139.13;;;1.37;100.00
59767;BME280;46248;58.364;25.582;2023-01-25T14:10:31;101124.50;;;1.38;100.00
59767;BME280;46248;58.364;25.582;2023-01-25T14:13:57;101129.66;;;1.38;100.00
59767;BME280;46248;58.364;25.582;2023-01-25T14:17:21;101138.28;;;1.37;100.00
59767;BME280;46248;58.364;25.582;2023-01-25T14:20:45;101127.97;;;1.32;100.00
59767;BME280;46248;58.364;25.582;2023-01-25T14:24:08;101128.81;;;1.34;100.00
59767;BME280;46248;58.364;25.582;2023-01-25T14:27:33;101113.34;;;1.30;100.00
59767;BME280;46248;58.364;25.582;2023-01-25T14:30:56;101110.78;;;1.30;100.00
59767;BME280;46248;58.364;25.582;2023-01-25T14:34:20;101124.53;;;1.33;100.00
59767;BME280;46248;58.364;25.582;2023-01-25T14:37:42;101116.78;;;1.35;100.00
59767;BME280;46248;58.364;25.582;2023-01-25T14:41:10;101111.66;;;1.33;100.00
59767;BME280;46248;58.364;25.582;2023-01-25T14:44:35;101109.91;;;1.34;100.00
59767;BME280;46248;58.364;25.582;2023-01-25T14:47:57;101108.19;;;1.31;100.00
59767;BME280;46248;58.364;25.582;2023-01-25T14:51:24;101095.34;;;1.22;100.00
59767;BME280;46248;58.364;25.582;2023-01-25T14:54:50;101096.16;;;1.29;100.00
59767;BME280;46248;58.364;25.582;2023-01-25T14:58:16;101100.44;;;1.30;100.00
59767;BME280;46248;58.364;25.582;2023-01-25T15:01:40;101101.34;;;1.30;100.00
59767;BME280;46248;58.364;25.582;2023-01-25T15:05:04;101080.72;;;1.27;100.00
59767;BME280;46248;58.364;25.582;2023-01-25T15:08:36;101081.56;;;1.28;100.00
59767;BME280;46248;58.364;25.582;2023-01-25T15:12:01;101080.72;;;1.24;100.00
59767;BME280;46248;58.364;25.582;2023-01-25T15:15:26;101105.66;;;1.25;100.00
59767;BME280;46248;58.364;25.582;2023-01-25T15:18:51;101097.03;;;1.23;100.00
59767;BME280;46248;58.364;25.582;2023-01-25T15:22:13;101109.06;;;1.26;100.00
59767;BME280;46248;58.364;25.582;2023-01-25T15:25:47;101123.69;;;1.28;100.00
59767;BME280;46248;58.364;25.582;2023-01-25T15:29:12;101110.81;;;1.25;100.00
59767;BME280;46248;58.364;25.582;2023-01-25T15:32:34;101110.78;;;1.27;100.00
59767;BME280;46248;58.364;25.582;2023-01-25T15:35:58;101112.53;;;1.28;100.00
59767;BME280;46248;58.364;25.582;2023-01-25T15:39:20;101115.94;;;1.27;100.00
59767;BME280;46248;58.364;25.582;2023-01-25T15:42:42;101101.38;;;1.20;100.00
59767;BME280;46248;58.364;25.582;2023-01-25T15:46:06;101092.75;;;1.22;100.00
59767;BME280;46248;58.364;25.582;2023-01-25T15:49:32;101102.19;;;1.23;100.00
59767;BME280;46248;58.364;25.582;2023-01-25T15:52:57;101102.19;;;1.23;100.00
59767;BME280;46248;58.364;25.582;2023-01-25T15:56:21;101088.44;;;1.23;100.00
59767;BME280;46248;58.364;25.582;2023-01-25T15:59:46;101103.06;;;1.22;100.00
59767;BME280;46248;58.364;25.582;2023-01-25T16:03:08;101095.31;;;1.21;100.00
59767;BME280;46248;58.364;25.582;2023-01-25T16:06:38;101087.63;;;1.13;100.00
59767;BME280;46248;58.364;25.582;2023-01-25T16:10:03;101094.47;;;1.23;100.00
59767;BME280;46248;58.364;25.582;2023-01-25T16:13:24;101091.06;;;1.21;100.00
59767;BME280;46248;58.364;25.582;2023-01-25T16:16:48;101092.75;;;1.22;100.00
59767;BME280;46248;58.364;25.582;2023-01-25T16:20:16;101105.66;;;1.19;100.00
59767;BME280;46248;58.364;25.582;2023-01-25T16:23:39;101099.66;;;1.22;100.00
59767;BME280;46248;58.364;25.582;2023-01-25T16:27:03;101096.19;;;1.23;100.00
59767;BME280;46248;58.364;25.582;2023-01-25T16:30:25;101093.63;;;1.21;100.00
59767;BME280;46248;58.364;25.582;2023-01-25T16:33:53;101084.16;;;1.20;100.00
59767;BME280;46248;58.364;25.582;2023-01-25T16:37:16;101078.16;;;1.20;100.00
59767;BME280;46248;58.364;25.582;2023-01-25T16:40:38;101079.00;;;1.17;100.00
59767;BME280;46248;58.364;25.582;2023-01-25T16:44:00;101081.59;;;1.19;100.00
59767;BME280;46248;58.364;25.582;2023-01-25T16:47:23;101073.00;;;1.17;100.00
59767;BME280;46248;58.364;25.582;2023-01-25T16:50:48;101076.44;;;1.17;100.00
59767;BME280;46248;58.364;25.582;2023-01-25T16:54:11;101076.44;;;1.19;100.00
59767;BME280;46248;58.364;25.582;2023-01-25T16:57:33;101068.69;;;1.14;100.00
59767;BME280;46248;58.364;25.582;2023-01-25T17:00:56;101066.97;;;1.16;100.00
59767;BME280;46248;58.364;25.582;2023-01-25T17:04:18;101073.03;;;1.15;100.00
59767;BME280;46248;58.364;25.582;2023-01-25T17:07:41;101069.56;;;1.16;100.00
59767;BME280;46248;58.364;25.582;2023-01-25T17:11:04;101066.09;;;1.17;100.00
59767;BME280;46248;58.364;25.582;2023-01-25T17:14:26;101070.41;;;1.12;100.00
59767;BME280;46248;58.364;25.582;2023-01-25T17:17:49;101054.13;;;1.02;100.00
59767;BME280;46248;58.364;25.582;2023-01-25T17:21:12;101070.44;;;1.15;100.00
59767;BME280;46248;58.364;25.582;2023-01-25T17:24:36;101074.72;;;1.16;100.00
59767;BME280;46248;58.364;25.582;2023-01-25T17:27:58;101076.44;;;1.17;100.00
59767;BME280;46248;58.364;25.582;2023-01-25T17:31:21;101064.41;;;1.14;100.00
59767;BME280;46248;58.364;25.582;2023-01-25T17:34:47;101065.28;;;1.10;100.00
59767;BME280;46248;58.364;25.582;2023-01-25T17:38:09;101037.84;;;0.97;100.00
59767;BME280;46248;58.364;25.582;2023-01-25T17:41:32;101059.25;;;1.13;100.00
59767;BME280;46248;58.364;25.582;2023-01-25T17:44:54;101050.66;;;1.12;100.00
59767;BME280;46248;58.364;25.582;2023-01-25T17:48:16;101055.81;;;1.11;100.00